EZY45WJ EGAC-EGGW
Flight info
| Callsign | EZY45WJ |
|---|---|
| Flight time | 0h 52m |
| Altitude | 33000 |
| Route | DUFFY L10 RINGA Q39 ETIGA DCT INKOB Q39 NOMSU UQ4 LISTO |
| Aircraft | A319/M-SDE2E3FGIJ1RWXYZ/LB1 |
Departure
| Time | 2026-04-26 12:26 |
|---|---|
| Airport | George Best Belfast City Airport (EGAC) |
Arrival
| Time | 2026-04-26 13:18 |
|---|---|
| Airport | London Luton Airport (EGGW) |
| Time | Latitude | Longitude | Altitude | Speed | Heading |
|---|---|---|---|---|---|
| 2026-04-26 11:58 | 54.61541 | -5.87089 | 22 ft | 0 kts | 161° |
| 2026-04-26 12:15 | 54.61552 | -5.87096 | 22 ft | 3 kts | 161° |
| 2026-04-26 12:15 | 54.61570 | -5.87107 | 23 ft | 3 kts | 161° |
| 2026-04-26 12:16 | 54.61589 | -5.87117 | 25 ft | 3 kts | 172° |
| 2026-04-26 12:16 | 54.61609 | -5.87119 | 24 ft | 3 kts | 192° |
| 2026-04-26 12:16 | 54.61626 | -5.87109 | 24 ft | 2 kts | 214° |
| 2026-04-26 12:16 | 54.61632 | -5.87102 | 23 ft | 0 kts | 214° |
| 2026-04-26 12:20 | 54.61632 | -5.87103 | 23 ft | 1 kts | 214° |
| 2026-04-26 12:20 | 54.61618 | -5.87119 | 22 ft | 4 kts | 214° |
| 2026-04-26 12:21 | 54.61587 | -5.87156 | 24 ft | 7 kts | 214° |
| 2026-04-26 12:21 | 54.61538 | -5.87214 | 21 ft | 10 kts | 214° |
| 2026-04-26 12:21 | 54.61473 | -5.87292 | 23 ft | 13 kts | 214° |
| 2026-04-26 12:21 | 54.61409 | -5.87387 | 21 ft | 12 kts | 235° |
| 2026-04-26 12:22 | 54.61342 | -5.87494 | 20 ft | 15 kts | 214° |
| 2026-04-26 12:22 | 54.61242 | -5.87614 | 17 ft | 20 kts | 214° |
| 2026-04-26 12:22 | 54.61130 | -5.87748 | 18 ft | 14 kts | 214° |
| 2026-04-26 12:22 | 54.61085 | -5.87834 | 19 ft | 4 kts | 256° |
| 2026-04-26 12:23 | 54.61085 | -5.87835 | 19 ft | 0 kts | 257° |
| 2026-04-26 12:24 | 54.61085 | -5.87836 | 19 ft | 0 kts | 257° |
| 2026-04-26 12:24 | 54.61083 | -5.87858 | 19 ft | 4 kts | 263° |
| 2026-04-26 12:24 | 54.61099 | -5.87938 | 18 ft | 10 kts | 303° |
| 2026-04-26 12:25 | 54.61212 | -5.87968 | 18 ft | 1 kts | 36° |
| 2026-04-26 12:25 | 54.61212 | -5.87967 | 18 ft | 2 kts | 36° |
| 2026-04-26 12:25 | 54.61463 | -5.87669 | 12 ft | 86 kts | 35° |
| 2026-04-26 12:25 | 54.62145 | -5.86858 | 64 ft | 144 kts | 32° |
| 2026-04-26 12:26 | 54.62968 | -5.85900 | 751 ft | 142 kts | 33° |
| 2026-04-26 12:26 | 54.63788 | -5.84922 | 1448 ft | 148 kts | 36° |
| 2026-04-26 12:26 | 54.64597 | -5.83636 | 1853 ft | 172 kts | 64° |
| 2026-04-26 12:26 | 54.64753 | -5.81510 | 2255 ft | 194 kts | 104° |
| 2026-04-26 12:27 | 54.63964 | -5.79513 | 2648 ft | 217 kts | 149° |
| 2026-04-26 12:27 | 54.62449 | -5.78906 | 3167 ft | 239 kts | 186° |
| 2026-04-26 12:27 | 54.60768 | -5.79569 | 3904 ft | 255 kts | 200° |
| 2026-04-26 12:27 | 54.59098 | -5.80678 | 4957 ft | 259 kts | 204° |
| 2026-04-26 12:28 | 54.57431 | -5.81906 | 6017 ft | 262 kts | 204° |
| 2026-04-26 12:28 | 54.55749 | -5.83137 | 7101 ft | 263 kts | 203° |
| 2026-04-26 12:28 | 54.54022 | -5.84213 | 8115 ft | 267 kts | 193° |
| 2026-04-26 12:28 | 54.52157 | -5.84214 | 9090 ft | 274 kts | 169° |
| 2026-04-26 12:29 | 54.50419 | -5.82819 | 10086 ft | 283 kts | 145° |
| 2026-04-26 12:29 | 54.49091 | -5.80231 | 10830 ft | 300 kts | 128° |
| 2026-04-26 12:29 | 54.46580 | -5.73958 | 11954 ft | 330 kts | 127° |
| 2026-04-26 12:30 | 54.45282 | -5.70669 | 12760 ft | 336 kts | 127° |
| 2026-04-26 12:30 | 54.43953 | -5.67323 | 13560 ft | 342 kts | 127° |
| 2026-04-26 12:30 | 54.42596 | -5.63932 | 14317 ft | 347 kts | 127° |
| 2026-04-26 12:31 | 54.39813 | -5.57016 | 15757 ft | 356 kts | 127° |
| 2026-04-26 12:31 | 54.38390 | -5.53497 | 16490 ft | 360 kts | 127° |
| 2026-04-26 12:31 | 54.36954 | -5.49950 | 17208 ft | 365 kts | 127° |
| 2026-04-26 12:31 | 54.35498 | -5.46361 | 17930 ft | 369 kts | 127° |
| 2026-04-26 12:32 | 54.34021 | -5.42736 | 18622 ft | 373 kts | 127° |
| 2026-04-26 12:32 | 54.32528 | -5.39078 | 19250 ft | 376 kts | 127° |
| 2026-04-26 12:32 | 54.29507 | -5.31664 | 20505 ft | 383 kts | 127° |
| 2026-04-26 12:33 | 54.27974 | -5.27903 | 21136 ft | 387 kts | 127° |
| 2026-04-26 12:33 | 54.26368 | -5.24190 | 21752 ft | 390 kts | 130° |
| 2026-04-26 12:33 | 54.24670 | -5.20561 | 22370 ft | 392 kts | 131° |
| 2026-04-26 12:33 | 54.22910 | -5.16966 | 22983 ft | 396 kts | 133° |
| 2026-04-26 12:34 | 54.21118 | -5.13364 | 23578 ft | 400 kts | 133° |
| 2026-04-26 12:34 | 54.19313 | -5.09723 | 24133 ft | 403 kts | 133° |
| 2026-04-26 12:34 | 54.17504 | -5.06038 | 24636 ft | 406 kts | 132° |
| 2026-04-26 12:34 | 54.15693 | -5.02314 | 25138 ft | 409 kts | 132° |
| 2026-04-26 12:35 | 54.13874 | -4.98555 | 25629 ft | 412 kts | 133° |
| 2026-04-26 12:35 | 54.12047 | -4.94772 | 26116 ft | 415 kts | 133° |
| 2026-04-26 12:35 | 54.10207 | -4.90961 | 26592 ft | 418 kts | 133° |
| 2026-04-26 12:35 | 54.08352 | -4.87133 | 27063 ft | 420 kts | 133° |
| 2026-04-26 12:36 | 54.06478 | -4.83288 | 27525 ft | 423 kts | 133° |
| 2026-04-26 12:36 | 54.04596 | -4.79437 | 27978 ft | 426 kts | 133° |
| 2026-04-26 12:36 | 54.02720 | -4.75496 | 28423 ft | 430 kts | 132° |
| 2026-04-26 12:36 | 54.01501 | -4.72827 | 28719 ft | 432 kts | 131° |
| 2026-04-26 12:37 | 53.99687 | -4.68732 | 29164 ft | 435 kts | 130° |
| 2026-04-26 12:37 | 53.97879 | -4.64580 | 29593 ft | 439 kts | 130° |
| 2026-04-26 12:37 | 53.95463 | -4.59037 | 30142 ft | 443 kts | 131° |
| 2026-04-26 12:37 | 53.93612 | -4.54839 | 30526 ft | 446 kts | 131° |
| 2026-04-26 12:38 | 53.92349 | -4.52004 | 30753 ft | 448 kts | 131° |
| 2026-04-26 12:38 | 53.90454 | -4.47782 | 31073 ft | 451 kts | 131° |
| 2026-04-26 12:38 | 53.88539 | -4.43545 | 31389 ft | 454 kts | 132° |
| 2026-04-26 12:38 | 53.86615 | -4.39276 | 31699 ft | 458 kts | 131° |
| 2026-04-26 12:39 | 53.84732 | -4.34895 | 32035 ft | 461 kts | 129° |
| 2026-04-26 12:39 | 53.82928 | -4.30493 | 32475 ft | 461 kts | 128° |
| 2026-04-26 12:39 | 53.81132 | -4.25996 | 32912 ft | 462 kts | 128° |
| 2026-04-26 12:39 | 53.79339 | -4.21479 | 33221 ft | 463 kts | 128° |
| 2026-04-26 12:40 | 53.77548 | -4.16998 | 33285 ft | 454 kts | 129° |
| 2026-04-26 12:40 | 53.75795 | -4.12669 | 33287 ft | 439 kts | 129° |
| 2026-04-26 12:40 | 53.74071 | -4.08472 | 33288 ft | 433 kts | 129° |
| 2026-04-26 12:41 | 53.70623 | -4.00184 | 33288 ft | 430 kts | 130° |
| 2026-04-26 12:41 | 53.67194 | -3.91956 | 33287 ft | 430 kts | 130° |
| 2026-04-26 12:42 | 53.63757 | -3.83714 | 33287 ft | 430 kts | 129° |
| 2026-04-26 12:42 | 53.60320 | -3.75480 | 33282 ft | 430 kts | 129° |
| 2026-04-26 12:43 | 53.56879 | -3.67254 | 33276 ft | 430 kts | 129° |
| 2026-04-26 12:43 | 53.53434 | -3.59042 | 33272 ft | 429 kts | 129° |
| 2026-04-26 12:44 | 53.49980 | -3.50862 | 33268 ft | 429 kts | 129° |
| 2026-04-26 12:44 | 53.46658 | -3.42515 | 33266 ft | 433 kts | 121° |
| 2026-04-26 12:45 | 53.44244 | -3.33207 | 33269 ft | 435 kts | 116° |
| 2026-04-26 12:45 | 53.41867 | -3.23867 | 33273 ft | 435 kts | 116° |
| 2026-04-26 12:46 | 53.39464 | -3.14544 | 33278 ft | 436 kts | 116° |
| 2026-04-26 12:46 | 53.37198 | -3.05122 | 33283 ft | 437 kts | 113° |
| 2026-04-26 12:47 | 53.35128 | -2.95547 | 33285 ft | 438 kts | 112° |
| 2026-04-26 12:47 | 53.33057 | -2.85971 | 33280 ft | 437 kts | 113° |
| 2026-04-26 12:48 | 53.30914 | -2.76459 | 33283 ft | 437 kts | 114° |
| 2026-04-26 12:48 | 53.28379 | -2.67263 | 33281 ft | 435 kts | 119° |
| 2026-04-26 12:49 | 53.25695 | -2.58193 | 33287 ft | 435 kts | 119° |
| 2026-04-26 12:49 | 53.23025 | -2.49114 | 33284 ft | 435 kts | 119° |
| 2026-04-26 12:50 | 53.20352 | -2.40056 | 33283 ft | 435 kts | 119° |
| 2026-04-26 12:50 | 53.17660 | -2.31018 | 33290 ft | 435 kts | 119° |
| 2026-04-26 12:51 | 53.14737 | -2.22229 | 33284 ft | 431 kts | 130° |
| 2026-04-26 12:51 | 53.10575 | -2.15326 | 33283 ft | 422 kts | 148° |
| 2026-04-26 12:52 | 53.05814 | -2.09536 | 33290 ft | 422 kts | 148° |
| 2026-04-26 12:52 | 53.01089 | -2.03774 | 33299 ft | 422 kts | 148° |
| 2026-04-26 12:53 | 52.96345 | -1.98023 | 33299 ft | 421 kts | 148° |
| 2026-04-26 12:53 | 52.93954 | -1.95139 | 32941 ft | 429 kts | 148° |
| 2026-04-26 12:53 | 52.91528 | -1.92219 | 32264 ft | 431 kts | 148° |
| 2026-04-26 12:53 | 52.89115 | -1.89307 | 31790 ft | 427 kts | 148° |
| 2026-04-26 12:54 | 52.86725 | -1.86422 | 31294 ft | 424 kts | 148° |
| 2026-04-26 12:54 | 52.84355 | -1.83564 | 30819 ft | 420 kts | 148° |
| 2026-04-26 12:54 | 52.82003 | -1.80732 | 30332 ft | 417 kts | 148° |
| 2026-04-26 12:54 | 52.79664 | -1.77925 | 29841 ft | 413 kts | 148° |
| 2026-04-26 12:55 | 52.77356 | -1.75163 | 29375 ft | 408 kts | 148° |
| 2026-04-26 12:55 | 52.75060 | -1.72448 | 28938 ft | 402 kts | 150° |
| 2026-04-26 12:55 | 52.72685 | -1.70227 | 28535 ft | 395 kts | 156° |
| 2026-04-26 12:55 | 52.70261 | -1.68144 | 28121 ft | 391 kts | 156° |
| 2026-04-26 12:56 | 52.67854 | -1.66077 | 27693 ft | 389 kts | 156° |
| 2026-04-26 12:56 | 52.65463 | -1.64023 | 27283 ft | 386 kts | 156° |
| 2026-04-26 12:56 | 52.63091 | -1.61986 | 26849 ft | 383 kts | 156° |
| 2026-04-26 12:56 | 52.60738 | -1.59965 | 26425 ft | 380 kts | 156° |
| 2026-04-26 12:57 | 52.58399 | -1.57958 | 25988 ft | 378 kts | 155° |
| 2026-04-26 12:57 | 52.56069 | -1.55963 | 25541 ft | 376 kts | 155° |
| 2026-04-26 12:57 | 52.53755 | -1.53985 | 25096 ft | 374 kts | 155° |
| 2026-04-26 12:58 | 52.49120 | -1.50030 | 24210 ft | 371 kts | 155° |
| 2026-04-26 12:58 | 52.46858 | -1.48106 | 23727 ft | 370 kts | 155° |
| 2026-04-26 12:58 | 52.44582 | -1.46173 | 23237 ft | 367 kts | 155° |
| 2026-04-26 12:58 | 52.42324 | -1.44255 | 22795 ft | 364 kts | 155° |
| 2026-04-26 12:59 | 52.40085 | -1.42351 | 22353 ft | 361 kts | 155° |
| 2026-04-26 12:59 | 52.37860 | -1.40463 | 21913 ft | 359 kts | 155° |
| 2026-04-26 12:59 | 52.35652 | -1.38594 | 21485 ft | 356 kts | 155° |
| 2026-04-26 12:59 | 52.33457 | -1.36739 | 21061 ft | 354 kts | 155° |
| 2026-04-26 13:00 | 52.31276 | -1.34898 | 20640 ft | 352 kts | 154° |
| 2026-04-26 13:00 | 52.29107 | -1.33061 | 20219 ft | 350 kts | 154° |
| 2026-04-26 13:00 | 52.26984 | -1.31149 | 19854 ft | 348 kts | 152° |
| 2026-04-26 13:00 | 52.24899 | -1.29181 | 19492 ft | 345 kts | 151° |
| 2026-04-26 13:01 | 52.22839 | -1.27197 | 19120 ft | 343 kts | 151° |
| 2026-04-26 13:01 | 52.20794 | -1.25222 | 18752 ft | 340 kts | 151° |
| 2026-04-26 13:01 | 52.18759 | -1.23272 | 18375 ft | 337 kts | 151° |
| 2026-04-26 13:01 | 52.16741 | -1.21357 | 17988 ft | 334 kts | 152° |
| 2026-04-26 13:02 | 52.14739 | -1.19472 | 17625 ft | 331 kts | 152° |
| 2026-04-26 13:02 | 52.12753 | -1.17609 | 17273 ft | 328 kts | 152° |
| 2026-04-26 13:02 | 52.10784 | -1.15764 | 16930 ft | 326 kts | 152° |
| 2026-04-26 13:02 | 52.08823 | -1.13935 | 16508 ft | 325 kts | 152° |
| 2026-04-26 13:03 | 52.06832 | -1.12081 | 15911 ft | 331 kts | 152° |
| 2026-04-26 13:03 | 52.04841 | -1.10223 | 15544 ft | 330 kts | 152° |
| 2026-04-26 13:03 | 52.02894 | -1.08277 | 15180 ft | 329 kts | 144° |
| 2026-04-26 13:03 | 52.01337 | -1.05580 | 14820 ft | 331 kts | 125° |
| 2026-04-26 13:04 | 52.00387 | -1.02170 | 14470 ft | 333 kts | 105° |
| 2026-04-26 13:04 | 52.00166 | -0.98439 | 14115 ft | 334 kts | 86° |
| 2026-04-26 13:04 | 52.00432 | -0.94708 | 13729 ft | 332 kts | 83° |
| 2026-04-26 13:04 | 52.00794 | -0.91044 | 13466 ft | 327 kts | 79° |
| 2026-04-26 13:05 | 52.01217 | -0.87632 | 13210 ft | 322 kts | 78° |
| 2026-04-26 13:05 | 52.01698 | -0.84101 | 12948 ft | 318 kts | 77° |
| 2026-04-26 13:05 | 52.02178 | -0.80634 | 12720 ft | 313 kts | 77° |
| 2026-04-26 13:05 | 52.02651 | -0.77171 | 12237 ft | 316 kts | 78° |
| 2026-04-26 13:06 | 52.03117 | -0.73684 | 11852 ft | 316 kts | 78° |
| 2026-04-26 13:06 | 52.03571 | -0.70196 | 11538 ft | 315 kts | 78° |
| 2026-04-26 13:06 | 52.04016 | -0.66726 | 11227 ft | 312 kts | 78° |
| 2026-04-26 13:06 | 52.04448 | -0.63321 | 11076 ft | 304 kts | 78° |
| 2026-04-26 13:07 | 52.04863 | -0.60034 | 10811 ft | 300 kts | 78° |
| 2026-04-26 13:07 | 52.05286 | -0.56678 | 10566 ft | 298 kts | 79° |
| 2026-04-26 13:07 | 52.05500 | -0.53356 | 10278 ft | 296 kts | 97° |
| 2026-04-26 13:07 | 52.04876 | -0.50229 | 9962 ft | 291 kts | 123° |
| 2026-04-26 13:08 | 52.03559 | -0.47786 | 9657 ft | 287 kts | 145° |
| 2026-04-26 13:08 | 52.01854 | -0.46151 | 9314 ft | 284 kts | 162° |
| 2026-04-26 13:08 | 51.99964 | -0.45313 | 8934 ft | 282 kts | 166° |
| 2026-04-26 13:08 | 51.98072 | -0.44481 | 8583 ft | 281 kts | 167° |
| 2026-04-26 13:09 | 51.96159 | -0.44283 | 8197 ft | 277 kts | 192° |
| 2026-04-26 13:09 | 51.94428 | -0.45529 | 7854 ft | 273 kts | 219° |
| 2026-04-26 13:09 | 51.93272 | -0.47922 | 7481 ft | 272 kts | 245° |
| 2026-04-26 13:09 | 51.92592 | -0.50754 | 7261 ft | 265 kts | 250° |
| 2026-04-26 13:10 | 51.91998 | -0.53511 | 7105 ft | 255 kts | 251° |
| 2026-04-26 13:10 | 51.91444 | -0.56218 | 6751 ft | 254 kts | 252° |
| 2026-04-26 13:10 | 51.90892 | -0.59013 | 6036 ft | 267 kts | 252° |
| 2026-04-26 13:10 | 51.90332 | -0.61876 | 5698 ft | 264 kts | 252° |
| 2026-04-26 13:11 | 51.89777 | -0.64701 | 5433 ft | 262 kts | 251° |
| 2026-04-26 13:11 | 51.89227 | -0.67476 | 5172 ft | 256 kts | 251° |
| 2026-04-26 13:11 | 51.88687 | -0.70202 | 4914 ft | 251 kts | 251° |
| 2026-04-26 13:11 | 51.88151 | -0.72865 | 4658 ft | 248 kts | 248° |
| 2026-04-26 13:12 | 51.87177 | -0.75033 | 4388 ft | 236 kts | 212° |
| 2026-04-26 13:12 | 51.85640 | -0.75685 | 4135 ft | 230 kts | 175° |
| 2026-04-26 13:12 | 51.84071 | -0.75209 | 3881 ft | 228 kts | 163° |
| 2026-04-26 13:12 | 51.82606 | -0.74384 | 3698 ft | 220 kts | 151° |
| 2026-04-26 13:13 | 51.81620 | -0.72572 | 3524 ft | 224 kts | 110° |
| 2026-04-26 13:13 | 51.81615 | -0.70057 | 3353 ft | 225 kts | 76° |
| 2026-04-26 13:13 | 51.82067 | -0.67627 | 3179 ft | 225 kts | 74° |
| 2026-04-26 13:13 | 51.82501 | -0.65268 | 3062 ft | 220 kts | 75° |
| 2026-04-26 13:14 | 51.82925 | -0.62880 | 3012 ft | 216 kts | 75° |
| 2026-04-26 13:14 | 51.83325 | -0.60600 | 2991 ft | 209 kts | 75° |
| 2026-04-26 13:14 | 51.83711 | -0.58398 | 3007 ft | 200 kts | 76° |
| 2026-04-26 13:14 | 51.84086 | -0.56255 | 2830 ft | 199 kts | 75° |
| 2026-04-26 13:15 | 51.84462 | -0.54108 | 2557 ft | 191 kts | 75° |
| 2026-04-26 13:15 | 51.84810 | -0.52114 | 2309 ft | 182 kts | 75° |
| 2026-04-26 13:15 | 51.85149 | -0.50170 | 2075 ft | 171 kts | 75° |
| 2026-04-26 13:15 | 51.85356 | -0.48983 | 1942 ft | 159 kts | 75° |
| 2026-04-26 13:16 | 51.85733 | -0.46823 | 1656 ft | 140 kts | 76° |
| 2026-04-26 13:16 | 51.85984 | -0.45380 | 1476 ft | 132 kts | 76° |
| 2026-04-26 13:16 | 51.86232 | -0.43968 | 1282 ft | 130 kts | 76° |
| 2026-04-26 13:16 | 51.86468 | -0.42586 | 1081 ft | 126 kts | 75° |
| 2026-04-26 13:17 | 51.86948 | -0.39855 | 752 ft | 126 kts | 75° |
| 2026-04-26 13:17 | 51.87180 | -0.38497 | 581 ft | 125 kts | 76° |
| 2026-04-26 13:18 | 51.87552 | -0.36328 | 521 ft | 57 kts | 74° |
| 2026-04-26 13:18 | 51.87619 | -0.35964 | 516 ft | 17 kts | 61° |
| 2026-04-26 13:18 | 51.87783 | -0.36068 | 518 ft | 13 kts | 267° |
| 2026-04-26 13:19 | 51.87760 | -0.36212 | 518 ft | 14 kts | 254° |
| 2026-04-26 13:19 | 51.87733 | -0.36369 | 518 ft | 15 kts | 255° |
| 2026-04-26 13:19 | 51.87706 | -0.36526 | 520 ft | 14 kts | 255° |
| 2026-04-26 13:19 | 51.87679 | -0.36679 | 522 ft | 14 kts | 255° |
| 2026-04-26 13:20 | 51.87654 | -0.36822 | 525 ft | 12 kts | 254° |
| 2026-04-26 13:20 | 51.87631 | -0.36954 | 525 ft | 13 kts | 255° |
| 2026-04-26 13:20 | 51.87603 | -0.37122 | 522 ft | 16 kts | 254° |
| 2026-04-26 13:20 | 51.87576 | -0.37304 | 522 ft | 17 kts | 266° |
| 2026-04-26 13:21 | 51.87619 | -0.37450 | 523 ft | 13 kts | 323° |
| 2026-04-26 13:21 | 51.87672 | -0.37506 | 521 ft | 15 kts | 320° |
| 2026-04-26 13:21 | 51.87742 | -0.37717 | 523 ft | 15 kts | 295° |
| 2026-04-26 13:21 | 51.87786 | -0.37868 | 523 ft | 15 kts | 295° |
| 2026-04-26 13:22 | 51.87820 | -0.37957 | 523 ft | 11 kts | 313° |
| 2026-04-26 13:22 | 51.87871 | -0.37985 | 523 ft | 6 kts | 33° |
| 2026-04-26 13:22 | 51.87887 | -0.37934 | 523 ft | 3 kts | 75° |
| 2026-04-26 13:22 | 51.87889 | -0.37922 | 523 ft | 0 kts | 75° |